sensor_id;sensor_type;location;lat;lon;timestamp;P1;durP1;ratioP1;P2;durP2;ratioP2
56381;SDS011;50261;51.150;4.470;2022-11-20T00:01:39;23.90;;;16.58;;
56381;SDS011;50261;51.150;4.470;2022-11-20T00:04:05;23.92;;;16.15;;
56381;SDS011;50261;51.150;4.470;2022-11-20T00:06:31;23.48;;;16.08;;
56381;SDS011;50261;51.150;4.470;2022-11-20T00:08:58;19.90;;;15.65;;
56381;SDS011;50261;51.150;4.470;2022-11-20T00:11:24;18.95;;;15.57;;
56381;SDS011;50261;51.150;4.470;2022-11-20T00:13:53;19.42;;;15.02;;
56381;SDS011;50261;51.150;4.470;2022-11-20T00:16:20;21.83;;;15.57;;
56381;SDS011;50261;51.150;4.470;2022-11-20T00:18:46;20.92;;;15.45;;
56381;SDS011;50261;51.150;4.470;2022-11-20T00:21:13;21.63;;;15.43;;
56381;SDS011;50261;51.150;4.470;2022-11-20T00:23:39;20.92;;;14.90;;
56381;SDS011;50261;51.150;4.470;2022-11-20T00:26:06;19.27;;;15.55;;
56381;SDS011;50261;51.150;4.470;2022-11-20T00:28:32;20.42;;;15.45;;
56381;SDS011;50261;51.150;4.470;2022-11-20T00:31:15;21.17;;;15.00;;
56381;SDS011;50261;51.150;4.470;2022-11-20T00:33:41;20.27;;;14.77;;
56381;SDS011;50261;51.150;4.470;2022-11-20T00:36:08;19.25;;;16.00;;
56381;SDS011;50261;51.150;4.470;2022-11-20T00:38:34;22.00;;;16.00;;
56381;SDS011;50261;51.150;4.470;2022-11-20T00:41:00;21.33;;;15.35;;
56381;SDS011;50261;51.150;4.470;2022-11-20T00:43:27;18.35;;;14.43;;
56381;SDS011;50261;51.150;4.470;2022-11-20T00:45:59;22.67;;;15.45;;
56381;SDS011;50261;51.150;4.470;2022-11-20T00:48:25;19.65;;;14.82;;
56381;SDS011;50261;51.150;4.470;2022-11-20T00:50:51;21.60;;;15.23;;
56381;SDS011;50261;51.150;4.470;2022-11-20T00:53:17;21.10;;;14.85;;
56381;SDS011;50261;51.150;4.470;2022-11-20T00:55:42;20.13;;;15.13;;
56381;SDS011;50261;51.150;4.470;2022-11-20T00:58:08;19.17;;;14.32;;
56381;SDS011;50261;51.150;4.470;2022-11-20T01:00:34;17.80;;;14.27;;
56381;SDS011;50261;51.150;4.470;2022-11-20T01:03:00;21.23;;;15.80;;
56381;SDS011;50261;51.150;4.470;2022-11-20T01:05:25;25.85;;;16.50;;
56381;SDS011;50261;51.150;4.470;2022-11-20T01:07:51;20.38;;;15.15;;
56381;SDS011;50261;51.150;4.470;2022-11-20T01:10:17;18.45;;;14.80;;
56381;SDS011;50261;51.150;4.470;2022-11-20T01:12:43;21.85;;;14.95;;
56381;SDS011;50261;51.150;4.470;2022-11-20T01:15:08;25.10;;;14.95;;
56381;SDS011;50261;51.150;4.470;2022-11-20T01:17:34;20.55;;;15.10;;
56381;SDS011;50261;51.150;4.470;2022-11-20T01:20:00;19.52;;;14.73;;
56381;SDS011;50261;51.150;4.470;2022-11-20T01:22:26;19.85;;;15.18;;
56381;SDS011;50261;51.150;4.470;2022-11-20T01:24:51;20.52;;;15.38;;
56381;SDS011;50261;51.150;4.470;2022-11-20T01:27:17;19.90;;;14.95;;
56381;SDS011;50261;51.150;4.470;2022-11-20T01:29:43;20.95;;;14.90;;
56381;SDS011;50261;51.150;4.470;2022-11-20T01:32:08;20.17;;;15.25;;
56381;SDS011;50261;51.150;4.470;2022-11-20T01:34:34;22.23;;;16.23;;
56381;SDS011;50261;51.150;4.470;2022-11-20T01:37:00;21.77;;;15.13;;
56381;SDS011;50261;51.150;4.470;2022-11-20T01:39:25;21.63;;;15.10;;
56381;SDS011;50261;51.150;4.470;2022-11-20T01:41:52;20.55;;;15.88;;
56381;SDS011;50261;51.150;4.470;2022-11-20T01:44:47;18.77;;;15.20;;
56381;SDS011;50261;51.150;4.470;2022-11-20T01:47:14;19.40;;;15.73;;
56381;SDS011;50261;51.150;4.470;2022-11-20T01:49:52;20.98;;;15.45;;
56381;SDS011;50261;51.150;4.470;2022-11-20T01:52:26;21.20;;;15.73;;
56381;SDS011;50261;51.150;4.470;2022-11-20T01:54:59;20.77;;;15.93;;
56381;SDS011;50261;51.150;4.470;2022-11-20T01:57:26;21.98;;;15.25;;
56381;SDS011;50261;51.150;4.470;2022-11-20T02:00:01;20.20;;;14.60;;
56381;SDS011;50261;51.150;4.470;2022-11-20T02:02:37;23.90;;;15.13;;
56381;SDS011;50261;51.150;4.470;2022-11-20T02:05:09;21.80;;;15.50;;
56381;SDS011;50261;51.150;4.470;2022-11-20T02:07:37;23.70;;;16.13;;
56381;SDS011;50261;51.150;4.470;2022-11-20T02:10:03;24.10;;;16.10;;
56381;SDS011;50261;51.150;4.470;2022-11-20T02:12:29;20.33;;;15.93;;
56381;SDS011;50261;51.150;4.470;2022-11-20T02:15:13;21.60;;;15.65;;
56381;SDS011;50261;51.150;4.470;2022-11-20T02:17:38;23.20;;;15.18;;
56381;SDS011;50261;51.150;4.470;2022-11-20T02:20:04;20.80;;;15.82;;
56381;SDS011;50261;51.150;4.470;2022-11-20T02:22:31;23.45;;;15.35;;
56381;SDS011;50261;51.150;4.470;2022-11-20T02:24:59;20.35;;;16.05;;
56381;SDS011;50261;51.150;4.470;2022-11-20T02:27:26;26.08;;;16.23;;
56381;SDS011;50261;51.150;4.470;2022-11-20T02:29:53;22.70;;;15.75;;
56381;SDS011;50261;51.150;4.470;2022-11-20T02:32:24;21.48;;;15.98;;
56381;SDS011;50261;51.150;4.470;2022-11-20T02:34:51;28.55;;;17.17;;
56381;SDS011;50261;51.150;4.470;2022-11-20T02:37:17;19.95;;;15.95;;
56381;SDS011;50261;51.150;4.470;2022-11-20T02:39:44;22.52;;;16.85;;
56381;SDS011;50261;51.150;4.470;2022-11-20T02:42:09;23.88;;;17.20;;
56381;SDS011;50261;51.150;4.470;2022-11-20T02:44:35;23.55;;;17.65;;
56381;SDS011;50261;51.150;4.470;2022-11-20T02:47:01;24.58;;;17.75;;
56381;SDS011;50261;51.150;4.470;2022-11-20T02:49:27;24.27;;;17.63;;
56381;SDS011;50261;51.150;4.470;2022-11-20T02:51:53;22.60;;;17.02;;
56381;SDS011;50261;51.150;4.470;2022-11-20T02:54:18;25.50;;;17.30;;
56381;SDS011;50261;51.150;4.470;2022-11-20T02:56:44;23.40;;;17.27;;
56381;SDS011;50261;51.150;4.470;2022-11-20T02:59:10;26.63;;;18.30;;
56381;SDS011;50261;51.150;4.470;2022-11-20T03:01:35;25.25;;;17.67;;
56381;SDS011;50261;51.150;4.470;2022-11-20T03:04:01;23.95;;;17.15;;
56381;SDS011;50261;51.150;4.470;2022-11-20T03:06:27;23.13;;;16.70;;
56381;SDS011;50261;51.150;4.470;2022-11-20T03:08:53;23.15;;;16.45;;
56381;SDS011;50261;51.150;4.470;2022-11-20T03:11:18;23.75;;;17.02;;
56381;SDS011;50261;51.150;4.470;2022-11-20T03:13:44;24.20;;;17.30;;
56381;SDS011;50261;51.150;4.470;2022-11-20T03:16:14;23.75;;;17.35;;
56381;SDS011;50261;51.150;4.470;2022-11-20T03:18:40;26.98;;;18.90;;
56381;SDS011;50261;51.150;4.470;2022-11-20T03:21:06;24.00;;;17.67;;
56381;SDS011;50261;51.150;4.470;2022-11-20T03:23:32;24.98;;;17.50;;
56381;SDS011;50261;51.150;4.470;2022-11-20T03:26:11;26.45;;;18.20;;
56381;SDS011;50261;51.150;4.470;2022-11-20T03:28:37;26.55;;;18.50;;
56381;SDS011;50261;51.150;4.470;2022-11-20T03:31:10;25.50;;;18.00;;
56381;SDS011;50261;51.150;4.470;2022-11-20T03:33:36;38.53;;;24.00;;
56381;SDS011;50261;51.150;4.470;2022-11-20T03:36:03;36.28;;;23.75;;
56381;SDS011;50261;51.150;4.470;2022-11-20T03:38:29;35.22;;;22.45;;
56381;SDS011;50261;51.150;4.470;2022-11-20T03:41:03;31.08;;;19.88;;
56381;SDS011;50261;51.150;4.470;2022-11-20T03:43:29;34.65;;;21.98;;
56381;SDS011;50261;51.150;4.470;2022-11-20T03:45:55;40.78;;;25.30;;
56381;SDS011;50261;51.150;4.470;2022-11-20T03:48:21;39.95;;;23.73;;
56381;SDS011;50261;51.150;4.470;2022-11-20T03:50:47;43.97;;;26.80;;
56381;SDS011;50261;51.150;4.470;2022-11-20T03:53:13;41.70;;;26.38;;
56381;SDS011;50261;51.150;4.470;2022-11-20T03:55:39;42.10;;;27.27;;
56381;SDS011;50261;51.150;4.470;2022-11-20T03:58:04;44.72;;;26.33;;
56381;SDS011;50261;51.150;4.470;2022-11-20T04:00:30;42.10;;;26.70;;
56381;SDS011;50261;51.150;4.470;2022-11-20T04:02:59;38.30;;;24.70;;
56381;SDS011;50261;51.150;4.470;2022-11-20T04:05:25;47.10;;;27.40;;
56381;SDS011;50261;51.150;4.470;2022-11-20T04:07:50;43.80;;;26.13;;
56381;SDS011;50261;51.150;4.470;2022-11-20T04:10:16;41.25;;;25.17;;
56381;SDS011;50261;51.150;4.470;2022-11-20T04:12:42;41.55;;;26.00;;
56381;SDS011;50261;51.150;4.470;2022-11-20T04:15:08;46.95;;;26.52;;
56381;SDS011;50261;51.150;4.470;2022-11-20T04:17:34;44.15;;;25.88;;
56381;SDS011;50261;51.150;4.470;2022-11-20T04:19:59;46.17;;;26.73;;
56381;SDS011;50261;51.150;4.470;2022-11-20T04:22:25;41.13;;;26.02;;
56381;SDS011;50261;51.150;4.470;2022-11-20T04:24:51;39.05;;;24.70;;
56381;SDS011;50261;51.150;4.470;2022-11-20T04:27:16;38.63;;;24.00;;
56381;SDS011;50261;51.150;4.470;2022-11-20T04:29:42;39.60;;;24.55;;
56381;SDS011;50261;51.150;4.470;2022-11-20T04:32:08;36.92;;;24.77;;
56381;SDS011;50261;51.150;4.470;2022-11-20T04:34:33;41.60;;;26.17;;
56381;SDS011;50261;51.150;4.470;2022-11-20T04:37:00;39.83;;;24.50;;
56381;SDS011;50261;51.150;4.470;2022-11-20T04:39:25;39.65;;;25.27;;
56381;SDS011;50261;51.150;4.470;2022-11-20T04:41:51;45.83;;;27.27;;
56381;SDS011;50261;51.150;4.470;2022-11-20T04:44:36;40.38;;;24.58;;
56381;SDS011;50261;51.150;4.470;2022-11-20T04:47:02;38.33;;;24.58;;
56381;SDS011;50261;51.150;4.470;2022-11-20T04:49:28;44.17;;;25.27;;
56381;SDS011;50261;51.150;4.470;2022-11-20T04:51:53;41.35;;;25.02;;
56381;SDS011;50261;51.150;4.470;2022-11-20T04:54:19;37.13;;;24.45;;
56381;SDS011;50261;51.150;4.470;2022-11-20T04:56:49;41.47;;;24.38;;
56381;SDS011;50261;51.150;4.470;2022-11-20T04:59:14;38.78;;;24.20;;
56381;SDS011;50261;51.150;4.470;2022-11-20T05:01:40;38.90;;;24.02;;
56381;SDS011;50261;51.150;4.470;2022-11-20T05:04:06;40.97;;;24.92;;
56381;SDS011;50261;51.150;4.470;2022-11-20T05:06:32;41.92;;;25.13;;
56381;SDS011;50261;51.150;4.470;2022-11-20T05:08:57;40.33;;;25.48;;
56381;SDS011;50261;51.150;4.470;2022-11-20T05:11:23;47.38;;;24.88;;
56381;SDS011;50261;51.150;4.470;2022-11-20T05:13:49;42.92;;;24.92;;
56381;SDS011;50261;51.150;4.470;2022-11-20T05:16:16;39.17;;;24.08;;
56381;SDS011;50261;51.150;4.470;2022-11-20T05:18:43;35.35;;;23.63;;
56381;SDS011;50261;51.150;4.470;2022-11-20T05:21:09;39.58;;;25.15;;
56381;SDS011;50261;51.150;4.470;2022-11-20T05:23:35;39.22;;;24.65;;
56381;SDS011;50261;51.150;4.470;2022-11-20T05:26:01;41.88;;;25.40;;
56381;SDS011;50261;51.150;4.470;2022-11-20T05:28:27;39.38;;;25.42;;
56381;SDS011;50261;51.150;4.470;2022-11-20T05:30:53;43.08;;;26.45;;
56381;SDS011;50261;51.150;4.470;2022-11-20T05:33:19;41.90;;;25.02;;
56381;SDS011;50261;51.150;4.470;2022-11-20T05:35:45;39.17;;;24.48;;
56381;SDS011;50261;51.150;4.470;2022-11-20T05:38:10;36.25;;;24.75;;
56381;SDS011;50261;51.150;4.470;2022-11-20T05:40:36;36.15;;;24.17;;
56381;SDS011;50261;51.150;4.470;2022-11-20T05:43:02;38.45;;;24.02;;
56381;SDS011;50261;51.150;4.470;2022-11-20T05:45:28;39.15;;;25.58;;
56381;SDS011;50261;51.150;4.470;2022-11-20T05:47:57;37.13;;;24.50;;
56381;SDS011;50261;51.150;4.470;2022-11-20T05:50:22;40.88;;;25.10;;
56381;SDS011;50261;51.150;4.470;2022-11-20T05:52:48;38.83;;;24.35;;
56381;SDS011;50261;51.150;4.470;2022-11-20T05:55:14;40.65;;;25.45;;
56381;SDS011;50261;51.150;4.470;2022-11-20T05:57:39;39.92;;;24.30;;
56381;SDS011;50261;51.150;4.470;2022-11-20T06:00:05;42.55;;;25.63;;
56381;SDS011;50261;51.150;4.470;2022-11-20T06:02:34;37.90;;;24.35;;
56381;SDS011;50261;51.150;4.470;2022-11-20T06:04:59;39.38;;;24.48;;
56381;SDS011;50261;51.150;4.470;2022-11-20T06:07:25;40.22;;;24.15;;
56381;SDS011;50261;51.150;4.470;2022-11-20T06:09:50;43.38;;;23.77;;
56381;SDS011;50261;51.150;4.470;2022-11-20T06:12:16;38.85;;;24.67;;
56381;SDS011;50261;51.150;4.470;2022-11-20T06:14:42;40.05;;;24.98;;
56381;SDS011;50261;51.150;4.470;2022-11-20T06:17:08;37.47;;;24.60;;
56381;SDS011;50261;51.150;4.470;2022-11-20T06:19:33;40.47;;;25.00;;
56381;SDS011;50261;51.150;4.470;2022-11-20T06:21:59;48.72;;;25.63;;
56381;SDS011;50261;51.150;4.470;2022-11-20T06:24:24;41.22;;;25.48;;
56381;SDS011;50261;51.150;4.470;2022-11-20T06:26:50;39.38;;;26.10;;
56381;SDS011;50261;51.150;4.470;2022-11-20T06:29:16;41.20;;;26.02;;
56381;SDS011;50261;51.150;4.470;2022-11-20T06:31:42;39.53;;;25.88;;
56381;SDS011;50261;51.150;4.470;2022-11-20T06:34:08;37.90;;;25.38;;
56381;SDS011;50261;51.150;4.470;2022-11-20T06:36:33;40.00;;;25.52;;
56381;SDS011;50261;51.150;4.470;2022-11-20T06:38:59;39.47;;;24.35;;
56381;SDS011;50261;51.150;4.470;2022-11-20T06:41:25;40.45;;;25.45;;
56381;SDS011;50261;51.150;4.470;2022-11-20T06:43:51;43.67;;;25.83;;
56381;SDS011;50261;51.150;4.470;2022-11-20T06:46:17;41.25;;;25.45;;
56381;SDS011;50261;51.150;4.470;2022-11-20T06:48:43;39.97;;;26.20;;
56381;SDS011;50261;51.150;4.470;2022-11-20T06:51:09;38.00;;;24.55;;
56381;SDS011;50261;51.150;4.470;2022-11-20T06:53:35;43.13;;;25.27;;
56381;SDS011;50261;51.150;4.470;2022-11-20T06:56:01;37.50;;;24.13;;
56381;SDS011;50261;51.150;4.470;2022-11-20T06:58:27;40.70;;;24.85;;
56381;SDS011;50261;51.150;4.470;2022-11-20T07:00:53;39.58;;;25.40;;
56381;SDS011;50261;51.150;4.470;2022-11-20T07:03:19;38.33;;;24.83;;
56381;SDS011;50261;51.150;4.470;2022-11-20T07:05:45;38.58;;;24.48;;
56381;SDS011;50261;51.150;4.470;2022-11-20T07:08:11;36.03;;;24.70;;
56381;SDS011;50261;51.150;4.470;2022-11-20T07:10:37;34.28;;;24.17;;
56381;SDS011;50261;51.150;4.470;2022-11-20T07:13:03;38.50;;;24.48;;
56381;SDS011;50261;51.150;4.470;2022-11-20T07:15:28;34.58;;;24.13;;
56381;SDS011;50261;51.150;4.470;2022-11-20T07:17:54;38.05;;;24.10;;
56381;SDS011;50261;51.150;4.470;2022-11-20T07:20:20;37.10;;;24.23;;
56381;SDS011;50261;51.150;4.470;2022-11-20T07:22:52;37.42;;;24.27;;
56381;SDS011;50261;51.150;4.470;2022-11-20T07:25:18;34.30;;;23.42;;
56381;SDS011;50261;51.150;4.470;2022-11-20T07:27:44;38.30;;;24.00;;
56381;SDS011;50261;51.150;4.470;2022-11-20T07:30:09;40.83;;;24.48;;
56381;SDS011;50261;51.150;4.470;2022-11-20T07:32:35;37.70;;;23.75;;
56381;SDS011;50261;51.150;4.470;2022-11-20T07:35:01;35.28;;;23.58;;
56381;SDS011;50261;51.150;4.470;2022-11-20T07:37:26;38.97;;;24.42;;
56381;SDS011;50261;51.150;4.470;2022-11-20T07:39:52;34.85;;;23.30;;
56381;SDS011;50261;51.150;4.470;2022-11-20T07:42:18;37.95;;;23.58;;
56381;SDS011;50261;51.150;4.470;2022-11-20T07:44:44;39.15;;;24.48;;
56381;SDS011;50261;51.150;4.470;2022-11-20T07:47:09;40.35;;;24.27;;
56381;SDS011;50261;51.150;4.470;2022-11-20T07:49:35;37.67;;;24.42;;
56381;SDS011;50261;51.150;4.470;2022-11-20T07:52:00;36.03;;;23.67;;
56381;SDS011;50261;51.150;4.470;2022-11-20T07:54:26;39.83;;;23.30;;
56381;SDS011;50261;51.150;4.470;2022-11-20T07:56:52;36.72;;;23.50;;
56381;SDS011;50261;51.150;4.470;2022-11-20T07:59:19;35.70;;;22.77;;
56381;SDS011;50261;51.150;4.470;2022-11-20T08:01:44;35.85;;;23.27;;
56381;SDS011;50261;51.150;4.470;2022-11-20T08:04:10;41.47;;;23.33;;
56381;SDS011;50261;51.150;4.470;2022-11-20T08:06:36;39.65;;;24.13;;
56381;SDS011;50261;51.150;4.470;2022-11-20T08:09:02;39.30;;;23.45;;
56381;SDS011;50261;51.150;4.470;2022-11-20T08:11:28;35.10;;;22.98;;
56381;SDS011;50261;51.150;4.470;2022-11-20T08:14:12;34.60;;;22.73;;
56381;SDS011;50261;51.150;4.470;2022-11-20T08:16:38;38.17;;;22.90;;
56381;SDS011;50261;51.150;4.470;2022-11-20T08:19:04;38.13;;;22.50;;
56381;SDS011;50261;51.150;4.470;2022-11-20T08:21:30;37.63;;;24.10;;
56381;SDS011;50261;51.150;4.470;2022-11-20T08:23:56;36.08;;;23.33;;
56381;SDS011;50261;51.150;4.470;2022-11-20T08:26:22;36.58;;;22.70;;
56381;SDS011;50261;51.150;4.470;2022-11-20T08:28:48;39.05;;;23.83;;
56381;SDS011;50261;51.150;4.470;2022-11-20T08:31:13;42.03;;;23.88;;
56381;SDS011;50261;51.150;4.470;2022-11-20T08:33:39;38.72;;;23.48;;
56381;SDS011;50261;51.150;4.470;2022-11-20T08:36:05;38.10;;;22.80;;
56381;SDS011;50261;51.150;4.470;2022-11-20T08:38:31;42.20;;;23.65;;
56381;SDS011;50261;51.150;4.470;2022-11-20T08:41:00;39.28;;;24.08;;
56381;SDS011;50261;51.150;4.470;2022-11-20T08:43:44;39.40;;;24.42;;
56381;SDS011;50261;51.150;4.470;2022-11-20T08:46:09;39.83;;;23.52;;
56381;SDS011;50261;51.150;4.470;2022-11-20T08:48:35;39.70;;;24.23;;
56381;SDS011;50261;51.150;4.470;2022-11-20T08:51:01;39.58;;;23.45;;
56381;SDS011;50261;51.150;4.470;2022-11-20T08:53:27;38.15;;;23.55;;
56381;SDS011;50261;51.150;4.470;2022-11-20T08:55:53;38.45;;;24.60;;
56381;SDS011;50261;51.150;4.470;2022-11-20T08:58:18;40.53;;;22.67;;
56381;SDS011;50261;51.150;4.470;2022-11-20T09:00:44;43.80;;;25.13;;
56381;SDS011;50261;51.150;4.470;2022-11-20T09:03:09;41.65;;;25.25;;
56381;SDS011;50261;51.150;4.470;2022-11-20T09:05:35;42.00;;;25.95;;
56381;SDS011;50261;51.150;4.470;2022-11-20T09:08:01;43.65;;;25.52;;
56381;SDS011;50261;51.150;4.470;2022-11-20T09:10:27;44.20;;;25.85;;
56381;SDS011;50261;51.150;4.470;2022-11-20T09:12:53;44.20;;;25.33;;
56381;SDS011;50261;51.150;4.470;2022-11-20T09:15:20;47.72;;;25.73;;
56381;SDS011;50261;51.150;4.470;2022-11-20T09:20:18;40.95;;;24.52;;
56381;SDS011;50261;51.150;4.470;2022-11-20T09:22:44;47.25;;;24.75;;
56381;SDS011;50261;51.150;4.470;2022-11-20T09:25:09;41.20;;;24.10;;
56381;SDS011;50261;51.150;4.470;2022-11-20T09:27:35;45.33;;;26.25;;
56381;SDS011;50261;51.150;4.470;2022-11-20T09:30:00;44.13;;;24.20;;
56381;SDS011;50261;51.150;4.470;2022-11-20T09:32:26;39.70;;;23.92;;
56381;SDS011;50261;51.150;4.470;2022-11-20T09:34:52;39.63;;;24.67;;
56381;SDS011;50261;51.150;4.470;2022-11-20T09:37:17;38.33;;;25.08;;
56381;SDS011;50261;51.150;4.470;2022-11-20T09:39:43;38.22;;;23.15;;
56381;SDS011;50261;51.150;4.470;2022-11-20T09:47:43;48.90;;;25.15;;
56381;SDS011;50261;51.150;4.470;2022-11-20T09:50:23;49.38;;;25.83;;
56381;SDS011;50261;51.150;4.470;2022-11-20T09:55:20;45.33;;;25.17;;
56381;SDS011;50261;51.150;4.470;2022-11-20T09:57:46;49.28;;;25.88;;
56381;SDS011;50261;51.150;4.470;2022-11-20T10:00:14;47.78;;;25.85;;
56381;SDS011;50261;51.150;4.470;2022-11-20T10:23:55;63.78;;;30.10;;
56381;SDS011;50261;51.150;4.470;2022-11-20T10:26:35;65.03;;;30.40;;
56381;SDS011;50261;51.150;4.470;2022-11-20T10:33:57;67.05;;;30.73;;
56381;SDS011;50261;51.150;4.470;2022-11-20T10:36:26;70.05;;;30.13;;
56381;SDS011;50261;51.150;4.470;2022-11-20T10:39:01;69.28;;;31.13;;
56381;SDS011;50261;51.150;4.470;2022-11-20T10:41:30;67.68;;;31.58;;
56381;SDS011;50261;51.150;4.470;2022-11-20T10:44:12;65.32;;;30.55;;
56381;SDS011;50261;51.150;4.470;2022-11-20T10:46:45;60.42;;;30.65;;
56381;SDS011;50261;51.150;4.470;2022-11-20T10:49:12;66.47;;;30.65;;
56381;SDS011;50261;51.150;4.470;2022-11-20T10:51:53;63.50;;;30.27;;
56381;SDS011;50261;51.150;4.470;2022-11-20T10:56:52;63.58;;;30.40;;
56381;SDS011;50261;51.150;4.470;2022-11-20T11:02:14;61.92;;;30.35;;
56381;SDS011;50261;51.150;4.470;2022-11-20T11:04:44;65.65;;;29.55;;
56381;SDS011;50261;51.150;4.470;2022-11-20T11:07:17;65.82;;;29.05;;
56381;SDS011;50261;51.150;4.470;2022-11-20T11:09:49;68.65;;;31.40;;
56381;SDS011;50261;51.150;4.470;2022-11-20T11:12:15;69.63;;;30.85;;
56381;SDS011;50261;51.150;4.470;2022-11-20T11:14:42;62.78;;;30.50;;
56381;SDS011;50261;51.150;4.470;2022-11-20T11:17:17;57.13;;;28.08;;
56381;SDS011;50261;51.150;4.470;2022-11-20T11:19:43;58.10;;;27.13;;
56381;SDS011;50261;51.150;4.470;2022-11-20T11:22:10;64.20;;;29.30;;
56381;SDS011;50261;51.150;4.470;2022-11-20T11:24:43;51.20;;;26.48;;
56381;SDS011;50261;51.150;4.470;2022-11-20T11:27:16;60.97;;;28.25;;
56381;SDS011;50261;51.150;4.470;2022-11-20T11:29:43;53.08;;;26.88;;
56381;SDS011;50261;51.150;4.470;2022-11-20T11:32:13;54.10;;;27.55;;
56381;SDS011;50261;51.150;4.470;2022-11-20T11:34:39;58.70;;;27.75;;
56381;SDS011;50261;51.150;4.470;2022-11-20T11:37:05;55.90;;;27.95;;
56381;SDS011;50261;51.150;4.470;2022-11-20T11:39:36;50.00;;;25.73;;
56381;SDS011;50261;51.150;4.470;2022-11-20T11:42:07;57.83;;;27.77;;
56381;SDS011;50261;51.150;4.470;2022-11-20T11:44:35;50.70;;;25.20;;
56381;SDS011;50261;51.150;4.470;2022-11-20T11:49:46;48.67;;;25.00;;
56381;SDS011;50261;51.150;4.470;2022-11-20T11:52:13;47.15;;;25.42;;
56381;SDS011;50261;51.150;4.470;2022-11-20T11:54:43;45.83;;;23.52;;
56381;SDS011;50261;51.150;4.470;2022-11-20T11:57:14;43.67;;;23.42;;
56381;SDS011;50261;51.150;4.470;2022-11-20T12:02:49;48.85;;;25.42;;
56381;SDS011;50261;51.150;4.470;2022-11-20T12:08:12;45.38;;;22.60;;
56381;SDS011;50261;51.150;4.470;2022-11-20T12:13:20;37.65;;;22.00;;
56381;SDS011;50261;51.150;4.470;2022-11-20T12:15:47;39.80;;;19.83;;
56381;SDS011;50261;51.150;4.470;2022-11-20T12:18:18;35.67;;;19.98;;
56381;SDS011;50261;51.150;4.470;2022-11-20T12:20:45;37.67;;;19.42;;
56381;SDS011;50261;51.150;4.470;2022-11-20T12:23:18;35.38;;;18.70;;
56381;SDS011;50261;51.150;4.470;2022-11-20T12:25:47;33.63;;;18.60;;
56381;SDS011;50261;51.150;4.470;2022-11-20T12:36:40;35.10;;;18.05;;
56381;SDS011;50261;51.150;4.470;2022-11-20T12:54:53;13.48;;;4.85;;
56381;SDS011;50261;51.150;4.470;2022-11-20T12:57:29;13.18;;;5.00;;
56381;SDS011;50261;51.150;4.470;2022-11-20T13:07:48;11.35;;;4.90;;
56381;SDS011;50261;51.150;4.470;2022-11-20T13:10:27;10.32;;;4.43;;
56381;SDS011;50261;51.150;4.470;2022-11-20T13:13:01;11.63;;;5.03;;
56381;SDS011;50261;51.150;4.470;2022-11-20T13:17:59;9.52;;;5.53;;
56381;SDS011;50261;51.150;4.470;2022-11-20T13:20:25;14.15;;;5.38;;
56381;SDS011;50261;51.150;4.470;2022-11-20T13:22:52;12.93;;;5.80;;
56381;SDS011;50261;51.150;4.470;2022-11-20T13:25:23;15.25;;;6.75;;
56381;SDS011;50261;51.150;4.470;2022-11-20T13:27:49;14.63;;;5.32;;
56381;SDS011;50261;51.150;4.470;2022-11-20T13:30:16;9.82;;;5.35;;
56381;SDS011;50261;51.150;4.470;2022-11-20T13:32:56;14.07;;;4.90;;
56381;SDS011;50261;51.150;4.470;2022-11-20T13:35:23;8.93;;;4.18;;
56381;SDS011;50261;51.150;4.470;2022-11-20T13:37:58;9.18;;;5.07;;
56381;SDS011;50261;51.150;4.470;2022-11-20T13:40:24;6.95;;;5.47;;
56381;SDS011;50261;51.150;4.470;2022-11-20T13:45:26;10.25;;;4.68;;
56381;SDS011;50261;51.150;4.470;2022-11-20T13:47:52;8.85;;;4.93;;
56381;SDS011;50261;51.150;4.470;2022-11-20T13:50:18;10.30;;;5.80;;
56381;SDS011;50261;51.150;4.470;2022-11-20T13:55:37;11.15;;;6.20;;
56381;SDS011;50261;51.150;4.470;2022-11-20T13:58:24;16.15;;;6.20;;
56381;SDS011;50261;51.150;4.470;2022-11-20T14:01:07;10.60;;;6.10;;
56381;SDS011;50261;51.150;4.470;2022-11-20T14:03:34;11.13;;;6.80;;
56381;SDS011;50261;51.150;4.470;2022-11-20T14:06:04;12.73;;;6.18;;
56381;SDS011;50261;51.150;4.470;2022-11-20T14:08:36;9.63;;;5.20;;
56381;SDS011;50261;51.150;4.470;2022-11-20T14:11:04;13.48;;;6.60;;
56381;SDS011;50261;51.150;4.470;2022-11-20T14:13:30;9.57;;;5.28;;
56381;SDS011;50261;51.150;4.470;2022-11-20T14:15:57;10.13;;;5.90;;
56381;SDS011;50261;51.150;4.470;2022-11-20T14:18:25;10.73;;;4.75;;
56381;SDS011;50261;51.150;4.470;2022-11-20T14:20:50;9.48;;;4.70;;
56381;SDS011;50261;51.150;4.470;2022-11-20T14:23:26;9.05;;;4.88;;
56381;SDS011;50261;51.150;4.470;2022-11-20T14:25:52;10.30;;;5.47;;
56381;SDS011;50261;51.150;4.470;2022-11-20T14:28:20;8.75;;;4.38;;
56381;SDS011;50261;51.150;4.470;2022-11-20T14:30:49;7.55;;;4.20;;
56381;SDS011;50261;51.150;4.470;2022-11-20T14:33:15;6.15;;;3.35;;
56381;SDS011;50261;51.150;4.470;2022-11-20T14:35:44;7.88;;;3.33;;
56381;SDS011;50261;51.150;4.470;2022-11-20T14:38:15;6.03;;;3.10;;
56381;SDS011;50261;51.150;4.470;2022-11-20T14:40:41;8.00;;;3.33;;
56381;SDS011;50261;51.150;4.470;2022-11-20T14:45:42;5.70;;;3.47;;
56381;SDS011;50261;51.150;4.470;2022-11-20T14:48:08;3.80;;;3.05;;
56381;SDS011;50261;51.150;4.470;2022-11-20T14:50:35;3.67;;;2.83;;
56381;SDS011;50261;51.150;4.470;2022-11-20T14:53:00;7.18;;;3.65;;
56381;SDS011;50261;51.150;4.470;2022-11-20T14:55:27;3.75;;;3.10;;
56381;SDS011;50261;51.150;4.470;2022-11-20T14:57:57;4.25;;;2.30;;
56381;SDS011;50261;51.150;4.470;2022-11-20T15:00:23;4.97;;;3.30;;
56381;SDS011;50261;51.150;4.470;2022-11-20T15:02:50;3.83;;;3.03;;
56381;SDS011;50261;51.150;4.470;2022-11-20T15:05:17;4.82;;;3.28;;
56381;SDS011;50261;51.150;4.470;2022-11-20T15:07:44;3.22;;;2.53;;
56381;SDS011;50261;51.150;4.470;2022-11-20T15:10:19;4.93;;;3.13;;
56381;SDS011;50261;51.150;4.470;2022-11-20T15:12:46;6.40;;;2.92;;
56381;SDS011;50261;51.150;4.470;2022-11-20T15:15:15;4.35;;;3.00;;
56381;SDS011;50261;51.150;4.470;2022-11-20T15:17:42;7.57;;;3.80;;
56381;SDS011;50261;51.150;4.470;2022-11-20T15:20:14;7.32;;;3.88;;
56381;SDS011;50261;51.150;4.470;2022-11-20T15:22:41;4.43;;;4.03;;
56381;SDS011;50261;51.150;4.470;2022-11-20T15:25:17;7.10;;;3.97;;
56381;SDS011;50261;51.150;4.470;2022-11-20T15:27:43;4.53;;;3.83;;
56381;SDS011;50261;51.150;4.470;2022-11-20T15:30:17;7.35;;;5.38;;
56381;SDS011;50261;51.150;4.470;2022-11-20T15:32:43;7.70;;;4.60;;
56381;SDS011;50261;51.150;4.470;2022-11-20T15:35:09;7.00;;;4.03;;
56381;SDS011;50261;51.150;4.470;2022-11-20T15:37:35;4.68;;;3.15;;
56381;SDS011;50261;51.150;4.470;2022-11-20T15:40:02;4.70;;;3.60;;
56381;SDS011;50261;51.150;4.470;2022-11-20T15:42:27;8.25;;;5.28;;
56381;SDS011;50261;51.150;4.470;2022-11-20T15:44:53;6.65;;;4.82;;
56381;SDS011;50261;51.150;4.470;2022-11-20T15:47:19;6.18;;;4.53;;
56381;SDS011;50261;51.150;4.470;2022-11-20T15:49:46;5.40;;;3.97;;
56381;SDS011;50261;51.150;4.470;2022-11-20T15:52:12;9.65;;;5.32;;
56381;SDS011;50261;51.150;4.470;2022-11-20T15:54:38;8.15;;;4.68;;
56381;SDS011;50261;51.150;4.470;2022-11-20T15:57:04;7.90;;;4.78;;
56381;SDS011;50261;51.150;4.470;2022-11-20T15:59:29;9.05;;;4.68;;
56381;SDS011;50261;51.150;4.470;2022-11-20T16:01:55;10.57;;;3.67;;
56381;SDS011;50261;51.150;4.470;2022-11-20T16:04:21;9.98;;;5.10;;